sensor_id;sensor_type;location;lat;lon;timestamp;pressure;altitude;pressure_sealevel;temperature;humidity
50484;BME280;36409;52.168;20.878;2023-03-13T00:01:53;99977.98;;;0.15;68.70
50484;BME280;36409;52.168;20.878;2023-03-13T00:04:23;99979.74;;;0.18;69.04
50484;BME280;36409;52.168;20.878;2023-03-13T00:06:52;99972.06;;;0.19;68.21
50484;BME280;36409;52.168;20.878;2023-03-13T00:09:21;99970.42;;;0.23;68.11
50484;BME280;36409;52.168;20.878;2023-03-13T00:11:53;99965.34;;;0.24;68.90
50484;BME280;36409;52.168;20.878;2023-03-13T00:14:21;99962.80;;;0.26;68.41
50484;BME280;36409;52.168;20.878;2023-03-13T00:16:51;99960.30;;;0.29;69.09
50484;BME280;36409;52.168;20.878;2023-03-13T00:19:20;99958.66;;;0.33;68.33
50484;BME280;36409;52.168;20.878;2023-03-13T00:21:49;99961.30;;;0.36;69.13
50484;BME280;36409;52.168;20.878;2023-03-13T00:24:20;99961.38;;;0.39;69.36
50484;BME280;36409;52.168;20.878;2023-03-13T00:26:48;99954.54;;;0.41;68.79
50484;BME280;36409;52.168;20.878;2023-03-13T00:29:18;99955.50;;;0.44;69.34
50484;BME280;36409;52.168;20.878;2023-03-13T00:31:48;99958.08;;;0.46;69.14
50484;BME280;36409;52.168;20.878;2023-03-13T00:34:17;99958.10;;;0.48;69.17
50484;BME280;36409;52.168;20.878;2023-03-13T00:36:48;99959.01;;;0.50;69.40
50484;BME280;36409;52.168;20.878;2023-03-13T00:39:20;99953.05;;;0.52;69.00
50484;BME280;36409;52.168;20.878;2023-03-13T00:41:49;99947.92;;;0.52;68.69
50484;BME280;36409;52.168;20.878;2023-03-13T00:44:19;99942.00;;;0.55;69.32
50484;BME280;36409;52.168;20.878;2023-03-13T00:46:49;99948.00;;;0.57;68.56
50484;BME280;36409;52.168;20.878;2023-03-13T00:49:20;99942.87;;;0.57;68.96
50484;BME280;36409;52.168;20.878;2023-03-13T00:51:49;99943.77;;;0.59;68.32
50484;BME280;36409;52.168;20.878;2023-03-13T00:54:20;99946.34;;;0.59;68.73
50484;BME280;36409;52.168;20.878;2023-03-13T00:56:51;99936.97;;;0.61;68.53
50484;BME280;36409;52.168;20.878;2023-03-13T00:59:21;99936.13;;;0.62;69.12
50484;BME280;36409;52.168;20.878;2023-03-13T01:01:51;99935.30;;;0.63;69.32
50484;BME280;36409;52.168;20.878;2023-03-13T01:04:21;99931.06;;;0.65;68.44
50484;BME280;36409;52.168;20.878;2023-03-13T01:06:52;99925.95;;;0.67;68.79
50484;BME280;36409;52.168;20.878;2023-03-13T01:09:21;99930.25;;;0.68;68.71
50484;BME280;36409;52.168;20.878;2023-03-13T01:11:50;99915.69;;;0.68;69.37
50484;BME280;36409;52.168;20.878;2023-03-13T01:14:19;99914.00;;;0.69;69.23
50484;BME280;36409;52.168;20.878;2023-03-13T01:16:49;99913.18;;;0.71;69.04
50484;BME280;36409;52.168;20.878;2023-03-13T01:19:20;99904.66;;;0.74;69.44
50484;BME280;36409;52.168;20.878;2023-03-13T01:21:50;99904.72;;;0.77;68.52
50484;BME280;36409;52.168;20.878;2023-03-13T01:24:19;99903.90;;;0.80;69.19
50484;BME280;36409;52.168;20.878;2023-03-13T01:26:49;99905.69;;;0.82;69.09
50484;BME280;36409;52.168;20.878;2023-03-13T01:29:19;99897.98;;;0.84;69.34
50484;BME280;36409;52.168;20.878;2023-03-13T01:31:49;99896.32;;;0.86;68.86
50484;BME280;36409;52.168;20.878;2023-03-13T01:34:18;99905.77;;;0.87;69.22
50484;BME280;36409;52.168;20.878;2023-03-13T01:36:53;99904.09;;;0.89;69.37
50484;BME280;36409;52.168;20.878;2023-03-13T01:39:21;99902.39;;;0.91;69.15
50484;BME280;36409;52.168;20.878;2023-03-13T01:41:52;99896.41;;;0.92;69.07
50484;BME280;36409;52.168;20.878;2023-03-13T01:44:24;99897.31;;;0.94;69.21
50484;BME280;36409;52.168;20.878;2023-03-13T01:46:55;99897.36;;;0.96;68.85
50484;BME280;36409;52.168;20.878;2023-03-13T01:49:27;99880.23;;;0.98;69.61
50484;BME280;36409;52.168;20.878;2023-03-13T01:52:26;99885.44;;;1.01;69.54
50484;BME280;36409;52.168;20.878;2023-03-13T01:55:33;99882.92;;;1.04;69.41
50484;BME280;36409;52.168;20.878;2023-03-13T01:58:04;99885.52;;;1.07;69.59
50484;BME280;36409;52.168;20.878;2023-03-13T02:00:35;99879.59;;;1.10;69.58
50484;BME280;36409;52.168;20.878;2023-03-13T02:03:09;99877.91;;;1.12;68.95
50484;BME280;36409;52.168;20.878;2023-03-13T02:05:39;99872.79;;;1.13;68.71
50484;BME280;36409;52.168;20.878;2023-03-13T02:08:12;99877.09;;;1.14;68.98
50484;BME280;36409;52.168;20.878;2023-03-13T02:10:50;99866.81;;;1.14;69.15
50484;BME280;36409;52.168;20.878;2023-03-13T02:13:23;99860.78;;;1.14;69.57
50484;BME280;36409;52.168;20.878;2023-03-13T02:15:53;99865.08;;;1.13;69.57
50484;BME280;36409;52.168;20.878;2023-03-13T02:18:22;99867.65;;;1.13;68.94
50484;BME280;36409;52.168;20.878;2023-03-13T02:20:56;99857.35;;;1.12;68.52
50484;BME280;36409;52.168;20.878;2023-03-13T02:23:38;99859.03;;;1.11;68.95
50484;BME280;36409;52.168;20.878;2023-03-13T02:26:09;99858.19;;;1.11;68.76
50484;BME280;36409;52.168;20.878;2023-03-13T02:28:39;99863.28;;;1.09;69.08
50484;BME280;36409;52.168;20.878;2023-03-13T02:31:12;99858.14;;;1.09;68.66
50484;BME280;36409;52.168;20.878;2023-03-13T02:33:42;99856.45;;;1.10;69.73
50484;BME280;36409;52.168;20.878;2023-03-13T02:36:14;99858.14;;;1.09;69.74
50484;BME280;36409;52.168;20.878;2023-03-13T02:38:49;99854.73;;;1.10;69.04
50484;BME280;36409;52.168;20.878;2023-03-13T02:41:21;99859.02;;;1.10;69.18
50484;BME280;36409;52.168;20.878;2023-03-13T02:43:51;99859.88;;;1.10;68.94
50484;BME280;36409;52.168;20.878;2023-03-13T02:46:20;99859.88;;;1.10;68.84
50484;BME280;36409;52.168;20.878;2023-03-13T02:48:54;99854.73;;;1.10;69.77
50484;BME280;36409;52.168;20.878;2023-03-13T02:51:28;99863.33;;;1.11;69.72
50484;BME280;36409;52.168;20.878;2023-03-13T02:54:03;99854.73;;;1.10;69.69
50484;BME280;36409;52.168;20.878;2023-03-13T02:56:33;99854.73;;;1.10;68.88
50484;BME280;36409;52.168;20.878;2023-03-13T02:59:04;99850.43;;;1.09;69.84
50484;BME280;36409;52.168;20.878;2023-03-13T03:01:35;99851.31;;;1.10;68.97
50484;BME280;36409;52.168;20.878;2023-03-13T03:04:05;99850.47;;;1.11;69.86
50484;BME280;36409;52.168;20.878;2023-03-13T03:06:34;99847.02;;;1.10;70.03
50484;BME280;36409;52.168;20.878;2023-03-13T03:09:04;99853.05;;;1.11;69.57
50484;BME280;36409;52.168;20.878;2023-03-13T03:11:36;99863.34;;;1.12;69.98
50484;BME280;36409;52.168;20.878;2023-03-13T03:14:09;99865.08;;;1.13;69.23
50484;BME280;36409;52.168;20.878;2023-03-13T03:16:41;99861.67;;;1.14;69.00
50484;BME280;36409;52.168;20.878;2023-03-13T03:19:11;99856.52;;;1.14;69.03
50484;BME280;36409;52.168;20.878;2023-03-13T03:21:40;99863.40;;;1.15;69.30
50484;BME280;36409;52.168;20.878;2023-03-13T03:24:09;99856.53;;;1.16;69.68
50484;BME280;36409;52.168;20.878;2023-03-13T03:26:38;99847.09;;;1.15;69.23
50484;BME280;36409;52.168;20.878;2023-03-13T03:29:13;99859.11;;;1.16;69.09
50484;BME280;36409;52.168;20.878;2023-03-13T03:31:44;99860.83;;;1.15;69.98
50484;BME280;36409;52.168;20.878;2023-03-13T03:34:15;99854.84;;;1.16;70.08
50484;BME280;36409;52.168;20.878;2023-03-13T03:36:47;99858.28;;;1.18;69.39
50484;BME280;36409;52.168;20.878;2023-03-13T03:39:19;99857.43;;;1.18;69.25
50484;BME280;36409;52.168;20.878;2023-03-13T03:41:49;99864.31;;;1.19;69.71
50484;BME280;36409;52.168;20.878;2023-03-13T03:44:21;99857.45;;;1.19;69.58
50484;BME280;36409;52.168;20.878;2023-03-13T03:46:55;99853.19;;;1.20;70.15
50484;BME280;36409;52.168;20.878;2023-03-13T03:49:26;99849.77;;;1.21;70.24
50484;BME280;36409;52.168;20.878;2023-03-13T03:51:55;99838.61;;;1.20;69.27
50484;BME280;36409;52.168;20.878;2023-03-13T03:54:31;99838.61;;;1.20;69.23
50484;BME280;36409;52.168;20.878;2023-03-13T03:57:01;99829.20;;;1.21;69.72
50484;BME280;36409;52.168;20.878;2023-03-13T03:59:32;99837.76;;;1.20;69.28
50484;BME280;36409;52.168;20.878;2023-03-13T04:02:07;99839.45;;;1.19;69.34
50484;BME280;36409;52.168;20.878;2023-03-13T04:04:37;99834.30;;;1.19;70.32
50484;BME280;36409;52.168;20.878;2023-03-13T04:07:28;99841.17;;;1.19;70.22
50484;BME280;36409;52.168;20.878;2023-03-13T04:09:57;99835.19;;;1.20;69.92
50484;BME280;36409;52.168;20.878;2023-03-13T04:12:36;99824.91;;;1.20;70.21
50484;BME280;36409;52.168;20.878;2023-03-13T04:15:08;99816.35;;;1.21;70.36
50484;BME280;36409;52.168;20.878;2023-03-13T04:17:38;99818.92;;;1.21;69.69
50484;BME280;36409;52.168;20.878;2023-03-13T04:20:12;99815.52;;;1.22;69.70
50484;BME280;36409;52.168;20.878;2023-03-13T04:22:42;99813.79;;;1.22;69.78
50484;BME280;36409;52.168;20.878;2023-03-13T04:25:12;99809.48;;;1.21;69.78
50484;BME280;36409;52.168;20.878;2023-03-13T04:27:41;99807.75;;;1.20;70.52
50484;BME280;36409;52.168;20.878;2023-03-13T04:30:12;99800.03;;;1.19;70.74
50484;BME280;36409;52.168;20.878;2023-03-13T04:32:49;99792.27;;;1.16;70.92
50484;BME280;36409;52.168;20.878;2023-03-13T04:35:30;99791.37;;;1.14;70.25
50484;BME280;36409;52.168;20.878;2023-03-13T04:38:30;99790.51;;;1.12;70.91
50484;BME280;36409;52.168;20.878;2023-03-13T04:41:16;99791.34;;;1.11;70.07
50484;BME280;36409;52.168;20.878;2023-03-13T04:44:09;99796.48;;;1.11;71.14
50484;BME280;36409;52.168;20.878;2023-03-13T04:47:07;99791.30;;;1.09;70.37
50484;BME280;36409;52.168;20.878;2023-03-13T04:49:49;99784.47;;;1.10;70.71
50484;BME280;36409;52.168;20.878;2023-03-13T04:52:33;99785.31;;;1.08;71.00
50484;BME280;36409;52.168;20.878;2023-03-13T04:55:25;99779.33;;;1.10;70.90
50484;BME280;36409;52.168;20.878;2023-03-13T04:58:26;99771.62;;;1.10;70.72
50484;BME280;36409;52.168;20.878;2023-03-13T05:01:21;99772.47;;;1.10;70.58
50484;BME280;36409;52.168;20.878;2023-03-13T05:04:14;99775.93;;;1.12;71.09
50484;BME280;36409;52.168;20.878;2023-03-13T05:07:13;99775.09;;;1.13;70.64
50484;BME280;36409;52.168;20.878;2023-03-13T05:09:54;99768.27;;;1.15;71.03
50484;BME280;36409;52.168;20.878;2023-03-13T05:12:43;99767.44;;;1.18;70.77
50484;BME280;36409;52.168;20.878;2023-03-13T05:15:29;99766.61;;;1.19;71.84
50484;BME280;36409;52.168;20.878;2023-03-13T05:18:17;99756.38;;;1.22;71.06
50484;BME280;36409;52.168;20.878;2023-03-13T05:20:55;99761.53;;;1.25;71.35
50484;BME280;36409;52.168;20.878;2023-03-13T05:23:52;99769.31;;;1.30;71.09
50484;BME280;36409;52.168;20.878;2023-03-13T05:26:35;99764.22;;;1.33;71.92
50484;BME280;36409;52.168;20.878;2023-03-13T05:29:14;99760.81;;;1.34;72.09
50484;BME280;36409;52.168;20.878;2023-03-13T05:31:56;99765.12;;;1.36;71.18
50484;BME280;36409;52.168;20.878;2023-03-13T05:34:35;99768.58;;;1.38;71.73
50484;BME280;36409;52.168;20.878;2023-03-13T05:37:14;99763.48;;;1.42;72.07
50484;BME280;36409;52.168;20.878;2023-03-13T05:40:06;99761.81;;;1.45;71.59
50484;BME280;36409;52.168;20.878;2023-03-13T05:42:44;99759.29;;;1.48;72.40
50484;BME280;36409;52.168;20.878;2023-03-13T05:45:34;99773.05;;;1.52;71.96
50484;BME280;36409;52.168;20.878;2023-03-13T05:48:12;99766.23;;;1.54;71.65
50484;BME280;36409;52.168;20.878;2023-03-13T05:51:00;99766.27;;;1.57;71.56
50484;BME280;36409;52.168;20.878;2023-03-13T05:53:49;99763.70;;;1.57;72.09
50484;BME280;36409;52.168;20.878;2023-03-13T05:56:49;99766.28;;;1.59;72.68
50484;BME280;36409;52.168;20.878;2023-03-13T05:59:34;99768.86;;;1.60;71.82
50484;BME280;36409;52.168;20.878;2023-03-13T06:02:39;99770.63;;;1.63;72.85
50484;BME280;36409;52.168;20.878;2023-03-13T06:05:11;99754.32;;;1.64;72.48
50484;BME280;36409;52.168;20.878;2023-03-13T06:07:40;99761.23;;;1.66;72.26
50484;BME280;36409;52.168;20.878;2023-03-13T06:10:11;99756.11;;;1.69;72.08
50484;BME280;36409;52.168;20.878;2023-03-13T06:12:40;99752.73;;;1.72;72.06
50484;BME280;36409;52.168;20.878;2023-03-13T06:15:13;99754.46;;;1.73;73.09
50484;BME280;36409;52.168;20.878;2023-03-13T06:17:58;99745.90;;;1.74;72.24
50484;BME280;36409;52.168;20.878;2023-03-13T06:20:27;99744.22;;;1.78;72.87
50484;BME280;36409;52.168;20.878;2023-03-13T06:22:56;99739.97;;;1.81;72.79
50484;BME280;36409;52.168;20.878;2023-03-13T06:25:26;99742.55;;;1.83;72.56
50484;BME280;36409;52.168;20.878;2023-03-13T06:27:55;99726.26;;;1.84;72.70
50484;BME280;36409;52.168;20.878;2023-03-13T06:30:24;99740.02;;;1.88;73.08
50484;BME280;36409;52.168;20.878;2023-03-13T06:32:53;99739.22;;;1.90;72.81
50484;BME280;36409;52.168;20.878;2023-03-13T06:35:24;99733.23;;;1.94;73.59
50484;BME280;36409;52.168;20.878;2023-03-13T06:37:53;99733.27;;;1.97;72.97
50484;BME280;36409;52.168;20.878;2023-03-13T06:40:22;99735.05;;;2.02;73.25
50484;BME280;36409;52.168;20.878;2023-03-13T06:42:51;99743.66;;;2.07;72.85
50484;BME280;36409;52.168;20.878;2023-03-13T06:45:22;99742.86;;;2.11;73.35
50484;BME280;36409;52.168;20.878;2023-03-13T06:47:54;99736.91;;;2.16;73.90
50484;BME280;36409;52.168;20.878;2023-03-13T06:50:23;99737.80;;;2.22;73.84
50484;BME280;36409;52.168;20.878;2023-03-13T06:52:53;99737.00;;;2.27;73.04
50484;BME280;36409;52.168;20.878;2023-03-13T06:55:22;99746.49;;;2.33;73.36
50484;BME280;36409;52.168;20.878;2023-03-13T06:57:51;99738.80;;;2.38;73.60
50484;BME280;36409;52.168;20.878;2023-03-13T07:00:25;99733.73;;;2.44;73.85
50484;BME280;36409;52.168;20.878;2023-03-13T07:02:54;99726.03;;;2.47;73.30
50484;BME280;36409;52.168;20.878;2023-03-13T07:05:24;99720.03;;;2.51;73.32
50484;BME280;36409;52.168;20.878;2023-03-13T07:07:53;99726.11;;;2.58;73.86
50484;BME280;36409;52.168;20.878;2023-03-13T07:10:22;99727.87;;;2.65;73.46
50484;BME280;36409;52.168;20.878;2023-03-13T07:12:54;99721.05;;;2.72;74.17
50484;BME280;36409;52.168;20.878;2023-03-13T07:15:23;99718.53;;;2.78;73.70
50484;BME280;36409;52.168;20.878;2023-03-13T07:17:52;99723.72;;;2.84;73.83
50484;BME280;36409;52.168;20.878;2023-03-13T07:20:24;99710.02;;;2.88;73.98
50484;BME280;36409;52.168;20.878;2023-03-13T07:22:53;99706.61;;;2.94;74.53
50484;BME280;36409;52.168;20.878;2023-03-13T07:25:25;99713.52;;;3.01;73.62
50484;BME280;36409;52.168;20.878;2023-03-13T07:27:54;99709.27;;;3.06;74.35
50484;BME280;36409;52.168;20.878;2023-03-13T07:30:25;99701.58;;;3.14;73.97
50484;BME280;36409;52.168;20.878;2023-03-13T07:32:54;99699.02;;;3.22;74.28
50484;BME280;36409;52.168;20.878;2023-03-13T07:35:23;99696.51;;;3.31;74.34
50484;BME280;36409;52.168;20.878;2023-03-13T07:37:53;99691.38;;;3.40;74.32
50484;BME280;36409;52.168;20.878;2023-03-13T07:40:22;99695.73;;;3.51;74.13
50484;BME280;36409;52.168;20.878;2023-03-13T07:42:51;99698.33;;;3.62;73.95
50484;BME280;36409;52.168;20.878;2023-03-13T07:45:21;99698.39;;;3.71;73.88
50484;BME280;36409;52.168;20.878;2023-03-13T07:47:50;99700.97;;;3.83;74.21
50484;BME280;36409;52.168;20.878;2023-03-13T07:50:19;99690.70;;;3.93;73.95
50484;BME280;36409;52.168;20.878;2023-03-13T07:52:53;99689.83;;;4.06;74.18
50484;BME280;36409;52.168;20.878;2023-03-13T07:55:23;99689.85;;;4.23;74.58
50484;BME280;36409;52.168;20.878;2023-03-13T07:57:52;99687.28;;;4.40;74.46
50484;BME280;36409;52.168;20.878;2023-03-13T08:00:29;99675.21;;;4.56;74.79
50484;BME280;36409;52.168;20.878;2023-03-13T08:03:00;99673.48;;;4.74;74.79
50484;BME280;36409;52.168;20.878;2023-03-13T08:05:32;99670.88;;;4.86;74.69
50484;BME280;36409;52.168;20.878;2023-03-13T08:08:01;99673.43;;;4.97;74.43
50484;BME280;36409;52.168;20.878;2023-03-13T08:10:31;99674.30;;;5.05;74.75
50484;BME280;36409;52.168;20.878;2023-03-13T08:13:00;99674.25;;;5.13;74.30
50484;BME280;36409;52.168;20.878;2023-03-13T08:15:32;99669.09;;;5.18;74.16
50484;BME280;36409;52.168;20.878;2023-03-13T08:18:01;99667.34;;;5.21;74.44
50484;BME280;36409;52.168;20.878;2023-03-13T08:20:32;99675.07;;;5.28;74.54
50484;BME280;36409;52.168;20.878;2023-03-13T08:23:01;99671.63;;;5.32;74.21
50484;BME280;36409;52.168;20.878;2023-03-13T08:25:31;99669.02;;;5.36;74.31
50484;BME280;36409;52.168;20.878;2023-03-13T08:28:03;99665.53;;;5.42;74.37
50484;BME280;36409;52.168;20.878;2023-03-13T08:30:33;99665.52;;;5.47;74.38
50484;BME280;36409;52.168;20.878;2023-03-13T08:33:05;99660.27;;;5.57;74.12
50484;BME280;36409;52.168;20.878;2023-03-13T08:35:35;99655.89;;;5.72;74.24
50484;BME280;36409;52.168;20.878;2023-03-13T08:38:04;99658.41;;;5.84;74.27
50484;BME280;36409;52.168;20.878;2023-03-13T08:40:34;99643.63;;;5.97;74.29
50484;BME280;36409;52.168;20.878;2023-03-13T08:43:04;99647.89;;;6.11;74.16
50484;BME280;36409;52.168;20.878;2023-03-13T08:45:33;99639.16;;;6.24;74.20
50484;BME280;36409;52.168;20.878;2023-03-13T08:48:03;99629.50;;;6.43;74.41
50484;BME280;36409;52.168;20.878;2023-03-13T08:50:32;99628.41;;;6.69;74.13
50484;BME280;36409;52.168;20.878;2023-03-13T08:53:02;99618.45;;;7.08;73.89
50484;BME280;36409;52.168;20.878;2023-03-13T08:55:32;99617.12;;;7.45;73.62
50484;BME280;36409;52.168;20.878;2023-03-13T08:58:02;99613.23;;;7.76;73.55
50484;BME280;36409;52.168;20.878;2023-03-13T09:00:31;99608.56;;;7.99;73.57
50484;BME280;36409;52.168;20.878;2023-03-13T09:03:00;99595.13;;;8.27;73.65
50484;BME280;36409;52.168;20.878;2023-03-13T09:05:30;99596.33;;;8.58;73.18
50484;BME280;36409;52.168;20.878;2023-03-13T09:07:59;99595.09;;;8.79;73.17
50484;BME280;36409;52.168;20.878;2023-03-13T09:10:33;99577.56;;;8.87;73.24
50484;BME280;36409;52.168;20.878;2023-03-13T09:13:05;99585.18;;;8.98;72.63
50484;BME280;36409;52.168;20.878;2023-03-13T09:15:34;99583.86;;;9.19;72.17
50484;BME280;36409;52.168;20.878;2023-03-13T09:18:07;99578.64;;;9.60;72.29
50484;BME280;36409;52.168;20.878;2023-03-13T09:20:36;99571.20;;;10.18;71.34
50484;BME280;36409;52.168;20.878;2023-03-13T09:23:06;99565.59;;;10.67;70.68
50484;BME280;36409;52.168;20.878;2023-03-13T09:25:37;99565.31;;;10.78;70.59
50484;BME280;36409;52.168;20.878;2023-03-13T09:28:06;99554.34;;;10.65;71.17
50484;BME280;36409;52.168;20.878;2023-03-13T09:30:35;99544.97;;;10.58;70.68
50484;BME280;36409;52.168;20.878;2023-03-13T09:33:04;99543.13;;;10.61;70.04
50484;BME280;36409;52.168;20.878;2023-03-13T09:35:33;99553.42;;;10.68;71.40
50484;BME280;36409;52.168;20.878;2023-03-13T09:38:03;99544.69;;;10.69;70.38
50484;BME280;36409;52.168;20.878;2023-03-13T09:40:40;99541.84;;;10.76;70.21
50484;BME280;36409;52.168;20.878;2023-03-13T09:43:38;99541.82;;;10.78;70.53
50484;BME280;36409;52.168;20.878;2023-03-13T09:46:14;99541.84;;;10.76;70.53
50484;BME280;36409;52.168;20.878;2023-03-13T09:48:47;99534.83;;;10.78;70.29
50484;BME280;36409;52.168;20.878;2023-03-13T09:51:23;99537.42;;;10.80;70.34
50484;BME280;36409;52.168;20.878;2023-03-13T09:54:00;99529.48;;;10.83;70.35
50484;BME280;36409;52.168;20.878;2023-03-13T09:56:38;99518.95;;;10.86;70.35
50484;BME280;36409;52.168;20.878;2023-03-13T09:59:15;99515.39;;;10.89;70.23
50484;BME280;36409;52.168;20.878;2023-03-13T10:01:49;99514.55;;;10.88;70.32
50484;BME280;36409;52.168;20.878;2023-03-13T10:04:28;99515.37;;;10.90;69.95
50484;BME280;36409;52.168;20.878;2023-03-13T10:06:58;99507.70;;;10.84;70.31
50484;BME280;36409;52.168;20.878;2023-03-13T10:09:30;99503.38;;;10.83;70.76
50484;BME280;36409;52.168;20.878;2023-03-13T10:12:12;99508.65;;;10.81;70.38
50484;BME280;36409;52.168;20.878;2023-03-13T10:14:53;99504.53;;;10.73;70.49
50484;BME280;36409;52.168;20.878;2023-03-13T10:17:32;99516.91;;;10.66;69.55
50484;BME280;36409;52.168;20.878;2023-03-13T10:20:13;99510.16;;;10.59;69.68
50484;BME280;36409;52.168;20.878;2023-03-13T10:22:55;99509.39;;;10.55;70.38
50484;BME280;36409;52.168;20.878;2023-03-13T10:25:31;99520.03;;;10.47;69.79
50484;BME280;36409;52.168;20.878;2023-03-13T10:28:03;99521.15;;;10.37;69.64
50484;BME280;36409;52.168;20.878;2023-03-13T10:30:35;99512.63;;;10.30;69.55
50484;BME280;36409;52.168;20.878;2023-03-13T10:33:20;99511.80;;;10.28;69.78
50484;BME280;36409;52.168;20.878;2023-03-13T10:36:02;99499.77;;;10.24;69.36
50484;BME280;36409;52.168;20.878;2023-03-13T10:38:46;99497.87;;;10.29;69.89
50484;BME280;36409;52.168;20.878;2023-03-13T10:41:25;99490.87;;;10.31;69.68
50484;BME280;36409;52.168;20.878;2023-03-13T10:43:59;99487.37;;;10.32;69.49
50484;BME280;36409;52.168;20.878;2023-03-13T10:46:32;99477.83;;;10.31;69.49
50484;BME280;36409;52.168;20.878;2023-03-13T10:49:03;99471.72;;;10.32;69.23
50484;BME280;36409;52.168;20.878;2023-03-13T10:51:44;99462.10;;;10.34;70.26
50484;BME280;36409;52.168;20.878;2023-03-13T10:54:22;99451.59;;;10.38;69.98
50484;BME280;36409;52.168;20.878;2023-03-13T10:57:07;99463.81;;;10.35;69.23
50484;BME280;36409;52.168;20.878;2023-03-13T10:59:41;99455.98;;;10.35;69.59
50484;BME280;36409;52.168;20.878;2023-03-13T11:02:21;99450.67;;;10.40;70.28
50484;BME280;36409;52.168;20.878;2023-03-13T11:04:51;99446.14;;;10.47;69.94
50484;BME280;36409;52.168;20.878;2023-03-13T11:07:26;99449.45;;;10.52;69.50
50484;BME280;36409;52.168;20.878;2023-03-13T11:10:05;99438.06;;;10.55;69.99
50484;BME280;36409;52.168;20.878;2023-03-13T11:12:45;99439.51;;;10.65;69.29
50484;BME280;36409;52.168;20.878;2023-03-13T11:15:19;99435.72;;;10.75;69.95
50484;BME280;36409;52.168;20.878;2023-03-13T11:17:53;99430.20;;;10.86;69.06
50484;BME280;36409;52.168;20.878;2023-03-13T11:20:27;99420.08;;;11.04;69.43
50484;BME280;36409;52.168;20.878;2023-03-13T11:23:12;99413.54;;;11.19;69.13
50484;BME280;36409;52.168;20.878;2023-03-13T11:25:57;99387.80;;;11.33;69.04
50484;BME280;36409;52.168;20.878;2023-03-13T11:28:43;99380.30;;;11.49;69.00
50484;BME280;36409;52.168;20.878;2023-03-13T11:31:19;99376.28;;;11.66;69.22
50484;BME280;36409;52.168;20.878;2023-03-13T11:33:54;99373.08;;;11.83;68.48
50484;BME280;36409;52.168;20.878;2023-03-13T11:36:33;99361.38;;;11.93;68.56
50484;BME280;36409;52.168;20.878;2023-03-13T11:41:59;99349.91;;;11.97;68.12
50484;BME280;36409;52.168;20.878;2023-03-13T11:44:44;99344.38;;;12.07;67.86
50484;BME280;36409;52.168;20.878;2023-03-13T11:47:34;99338.17;;;12.09;68.65
50484;BME280;36409;52.168;20.878;2023-03-13T11:50:25;99336.01;;;12.20;67.89
50484;BME280;36409;52.168;20.878;2023-03-13T11:53:18;99335.03;;;12.23;68.08
50484;BME280;36409;52.168;20.878;2023-03-13T11:56:07;99331.34;;;12.29;67.70
50484;BME280;36409;52.168;20.878;2023-03-13T11:59:15;99332.94;;;12.33;68.08
50484;BME280;36409;52.168;20.878;2023-03-13T12:01:53;99324.28;;;12.31;68.23
50484;BME280;36409;52.168;20.878;2023-03-13T12:04:28;99325.27;;;12.28;67.74
50484;BME280;36409;52.168;20.878;2023-03-13T12:07:04;99321.91;;;12.25;67.31
50484;BME280;36409;52.168;20.878;2023-03-13T12:09:41;99325.72;;;12.16;67.74
50484;BME280;36409;52.168;20.878;2023-03-13T12:12:19;99327.70;;;12.09;66.85
50484;BME280;36409;52.168;20.878;2023-03-13T12:14:56;99321.02;;;12.02;67.67
50484;BME280;36409;52.168;20.878;2023-03-13T12:17:32;99325.78;;;11.89;67.08
50484;BME280;36409;52.168;20.878;2023-03-13T12:20:09;99318.27;;;11.80;67.34
50484;BME280;36409;52.168;20.878;2023-03-13T12:22:45;99320.39;;;11.70;67.37
50484;BME280;36409;52.168;20.878;2023-03-13T12:25:22;99318.03;;;11.62;66.89
50484;BME280;36409;52.168;20.878;2023-03-13T12:28:00;99312.91;;;11.59;66.96
50484;BME280;36409;52.168;20.878;2023-03-13T12:30:38;99301.78;;;11.54;66.95
50484;BME280;36409;52.168;20.878;2023-03-13T12:33:18;99296.75;;;11.48;67.35
50484;BME280;36409;52.168;20.878;2023-03-13T12:35:56;99296.08;;;11.42;67.43
50484;BME280;36409;52.168;20.878;2023-03-13T12:38:35;99293.88;;;11.30;66.87
50484;BME280;36409;52.168;20.878;2023-03-13T12:41:17;99296.75;;;11.22;67.05
50484;BME280;36409;52.168;20.878;2023-03-13T12:43:49;99290.94;;;11.14;67.42
50484;BME280;36409;52.168;20.878;2023-03-13T12:46:42;99290.32;;;11.06;67.49
50484;BME280;36409;52.168;20.878;2023-03-13T12:52:56;99285.66;;;10.89;67.13
50484;BME280;36409;52.168;20.878;2023-03-13T12:55:56;99277.23;;;10.80;67.99
50484;BME280;36409;52.168;20.878;2023-03-13T12:58:38;99284.41;;;10.74;67.40
50484;BME280;36409;52.168;20.878;2023-03-13T13:01:16;99283.80;;;10.65;67.57
50484;BME280;36409;52.168;20.878;2023-03-13T13:03:52;99279.69;;;10.58;67.17
50484;BME280;36409;52.168;20.878;2023-03-13T13:06:28;99277.31;;;10.50;68.35
50484;BME280;36409;52.168;20.878;2023-03-13T13:09:22;99272.27;;;10.44;68.63
50484;BME280;36409;52.168;20.878;2023-03-13T13:11:54;99269.00;;;10.38;68.57
50484;BME280;36409;52.168;20.878;2023-03-13T13:17:50;99255.52;;;10.23;68.14
50484;BME280;36409;52.168;20.878;2023-03-13T13:20:46;99248.76;;;10.16;68.63
50484;BME280;36409;52.168;20.878;2023-03-13T13:23:24;99247.05;;;10.15;68.62
50484;BME280;36409;52.168;20.878;2023-03-13T13:32:44;99242.92;;;10.08;68.85
50484;BME280;36409;52.168;20.878;2023-03-13T13:35:27;99239.59;;;10.02;69.79
50484;BME280;36409;52.168;20.878;2023-03-13T13:38:30;99241.55;;;9.96;70.01
50484;BME280;36409;52.168;20.878;2023-03-13T13:41:32;99239.17;;;9.88;70.25
50484;BME280;36409;52.168;20.878;2023-03-13T13:44:27;99230.67;;;9.81;69.19
50484;BME280;36409;52.168;20.878;2023-03-13T13:47:00;99232.55;;;9.76;70.36
50484;BME280;36409;52.168;20.878;2023-03-13T13:49:36;99228.36;;;9.70;70.28
50484;BME280;36409;52.168;20.878;2023-03-13T13:52:39;99227.73;;;9.62;70.12
50484;BME280;36409;52.168;20.878;2023-03-13T13:55:32;99227.05;;;9.55;70.71
50484;BME280;36409;52.168;20.878;2023-03-13T13:58:16;99222.84;;;9.51;70.11